sensor_id;sensor_type;location;lat;lon;timestamp;temperature;humidity
39983;DHT22;25670;44.782;10.356;2023-07-09T00:05:47;22.60;99.90
39983;DHT22;25670;44.782;10.356;2023-07-09T00:08:32;22.50;99.90
39983;DHT22;25670;44.782;10.356;2023-07-09T00:10:59;22.40;99.90
39983;DHT22;25670;44.782;10.356;2023-07-09T00:13:27;22.50;99.90
39983;DHT22;25670;44.782;10.356;2023-07-09T00:15:58;22.30;99.90
39983;DHT22;25670;44.782;10.356;2023-07-09T00:18:25;22.40;99.90
39983;DHT22;25670;44.782;10.356;2023-07-09T00:23:18;22.40;99.90
39983;DHT22;25670;44.782;10.356;2023-07-09T00:25:46;22.50;99.90
39983;DHT22;25670;44.782;10.356;2023-07-09T00:28:15;22.60;99.90
39983;DHT22;25670;44.782;10.356;2023-07-09T00:30:41;22.60;99.90
39983;DHT22;25670;44.782;10.356;2023-07-09T00:33:11;22.60;99.90
39983;DHT22;25670;44.782;10.356;2023-07-09T00:35:43;22.50;99.90
39983;DHT22;25670;44.782;10.356;2023-07-09T00:38:20;22.50;99.90
39983;DHT22;25670;44.782;10.356;2023-07-09T00:41:14;22.60;99.90
39983;DHT22;25670;44.782;10.356;2023-07-09T00:43:44;22.30;99.90
39983;DHT22;25670;44.782;10.356;2023-07-09T00:49:31;22.40;99.90
39983;DHT22;25670;44.782;10.356;2023-07-09T00:52:12;22.60;99.90
39983;DHT22;25670;44.782;10.356;2023-07-09T00:57:14;22.40;99.90
39983;DHT22;25670;44.782;10.356;2023-07-09T00:59:53;22.40;99.90
39983;DHT22;25670;44.782;10.356;2023-07-09T01:02:22;22.40;99.90
39983;DHT22;25670;44.782;10.356;2023-07-09T01:04:56;22.30;99.90
39983;DHT22;25670;44.782;10.356;2023-07-09T01:07:28;22.30;99.90
39983;DHT22;25670;44.782;10.356;2023-07-09T01:12:22;22.20;99.90
39983;DHT22;25670;44.782;10.356;2023-07-09T01:14:52;21.80;99.90
39983;DHT22;25670;44.782;10.356;2023-07-09T01:19:50;22.00;99.90
39983;DHT22;25670;44.782;10.356;2023-07-09T01:22:18;22.20;99.90
39983;DHT22;25670;44.782;10.356;2023-07-09T01:25:01;22.20;99.90
39983;DHT22;25670;44.782;10.356;2023-07-09T01:27:40;22.20;99.90
39983;DHT22;25670;44.782;10.356;2023-07-09T01:30:11;22.60;99.90
39983;DHT22;25670;44.782;10.356;2023-07-09T01:32:38;22.80;99.90
39983;DHT22;25670;44.782;10.356;2023-07-09T01:35:05;22.20;99.90
39983;DHT22;25670;44.782;10.356;2023-07-09T01:37:35;22.20;99.90
39983;DHT22;25670;44.782;10.356;2023-07-09T01:40:03;22.10;99.90
39983;DHT22;25670;44.782;10.356;2023-07-09T01:42:36;22.20;99.90
39983;DHT22;25670;44.782;10.356;2023-07-09T01:45:06;22.60;99.90
39983;DHT22;25670;44.782;10.356;2023-07-09T01:52:29;22.00;99.90
39983;DHT22;25670;44.782;10.356;2023-07-09T01:57:26;22.00;99.90
39983;DHT22;25670;44.782;10.356;2023-07-09T02:00:01;22.00;99.90
39983;DHT22;25670;44.782;10.356;2023-07-09T02:02:41;22.10;99.90
39983;DHT22;25670;44.782;10.356;2023-07-09T02:05:15;22.10;99.90
39983;DHT22;25670;44.782;10.356;2023-07-09T02:10:08;22.60;99.90
39983;DHT22;25670;44.782;10.356;2023-07-09T02:27:17;21.90;99.90
39983;DHT22;25670;44.782;10.356;2023-07-09T02:32:16;21.90;99.90
39983;DHT22;25670;44.782;10.356;2023-07-09T02:37:16;21.90;99.90
39983;DHT22;25670;44.782;10.356;2023-07-09T02:42:13;21.90;99.90
39983;DHT22;25670;44.782;10.356;2023-07-09T02:44:41;21.70;99.90
39983;DHT22;25670;44.782;10.356;2023-07-09T02:49:35;21.80;99.90
39983;DHT22;25670;44.782;10.356;2023-07-09T03:16:31;21.60;99.90
39983;DHT22;25670;44.782;10.356;2023-07-09T03:21:26;21.50;99.90
39983;DHT22;25670;44.782;10.356;2023-07-09T03:23:53;21.60;99.90
39983;DHT22;25670;44.782;10.356;2023-07-09T03:50:47;21.70;99.90
39983;DHT22;25670;44.782;10.356;2023-07-09T03:53:14;21.70;99.90
39983;DHT22;25670;44.782;10.356;2023-07-09T04:07:55;21.90;99.90
39983;DHT22;25670;44.782;10.356;2023-07-09T04:20:09;22.50;99.90
39983;DHT22;25670;44.782;10.356;2023-07-09T04:25:04;22.00;99.90
39983;DHT22;25670;44.782;10.356;2023-07-09T04:42:15;22.20;99.90
39983;DHT22;25670;44.782;10.356;2023-07-09T04:54:28;22.40;99.90
39983;DHT22;25670;44.782;10.356;2023-07-09T04:56:54;22.50;99.90
39983;DHT22;25670;44.782;10.356;2023-07-09T04:59:22;22.30;99.90
39983;DHT22;25670;44.782;10.356;2023-07-09T05:01:49;21.80;99.90
39983;DHT22;25670;44.782;10.356;2023-07-09T05:04:15;22.60;99.90
39983;DHT22;25670;44.782;10.356;2023-07-09T05:09:08;22.60;99.90
39983;DHT22;25670;44.782;10.356;2023-07-09T05:11:35;22.80;99.90
39983;DHT22;25670;44.782;10.356;2023-07-09T05:14:03;22.70;99.90
39983;DHT22;25670;44.782;10.356;2023-07-09T05:16:29;22.90;99.90
39983;DHT22;25670;44.782;10.356;2023-07-09T05:18:55;22.90;99.90
39983;DHT22;25670;44.782;10.356;2023-07-09T05:21:22;22.90;99.90
39983;DHT22;25670;44.782;10.356;2023-07-09T05:23:48;22.80;99.90
39983;DHT22;25670;44.782;10.356;2023-07-09T05:28:40;23.50;99.90
39983;DHT22;25670;44.782;10.356;2023-07-09T05:31:07;23.50;99.90
39983;DHT22;25670;44.782;10.356;2023-07-09T05:33:33;23.70;99.90
39983;DHT22;25670;44.782;10.356;2023-07-09T05:35:59;23.70;99.90
39983;DHT22;25670;44.782;10.356;2023-07-09T05:41:02;23.70;99.90
39983;DHT22;25670;44.782;10.356;2023-07-09T05:43:30;23.60;99.90
39983;DHT22;25670;44.782;10.356;2023-07-09T05:45:56;23.90;99.90
39983;DHT22;25670;44.782;10.356;2023-07-09T05:48:23;23.80;99.90
39983;DHT22;25670;44.782;10.356;2023-07-09T05:50:53;23.90;99.90
39983;DHT22;25670;44.782;10.356;2023-07-09T05:53:21;24.50;99.90
39983;DHT22;25670;44.782;10.356;2023-07-09T05:55:48;24.20;99.90
39983;DHT22;25670;44.782;10.356;2023-07-09T05:58:14;24.10;99.90
39983;DHT22;25670;44.782;10.356;2023-07-09T06:00:40;24.10;99.90
39983;DHT22;25670;44.782;10.356;2023-07-09T06:05:34;24.20;99.90
39983;DHT22;25670;44.782;10.356;2023-07-09T06:08:00;24.40;99.90
39983;DHT22;25670;44.782;10.356;2023-07-09T06:10:27;24.50;99.90
39983;DHT22;25670;44.782;10.356;2023-07-09T06:12:53;24.50;99.90
39983;DHT22;25670;44.782;10.356;2023-07-09T06:15:19;24.50;99.90
39983;DHT22;25670;44.782;10.356;2023-07-09T06:20:12;24.70;99.90
39983;DHT22;25670;44.782;10.356;2023-07-09T06:22:38;24.80;99.90
39983;DHT22;25670;44.782;10.356;2023-07-09T06:25:05;25.20;99.90
39983;DHT22;25670;44.782;10.356;2023-07-09T06:32:24;24.80;99.90
39983;DHT22;25670;44.782;10.356;2023-07-09T06:34:50;24.50;99.90
39983;DHT22;25670;44.782;10.356;2023-07-09T06:37:17;24.70;99.90
39983;DHT22;25670;44.782;10.356;2023-07-09T06:45:14;25.30;99.90
39983;DHT22;25670;44.782;10.356;2023-07-09T06:47:41;25.50;99.90
39983;DHT22;25670;44.782;10.356;2023-07-09T06:50:08;25.60;99.90
39983;DHT22;25670;44.782;10.356;2023-07-09T06:52:34;25.30;99.90
39983;DHT22;25670;44.782;10.356;2023-07-09T06:55:00;25.60;99.90
39983;DHT22;25670;44.782;10.356;2023-07-09T06:57:26;25.50;99.90
39983;DHT22;25670;44.782;10.356;2023-07-09T06:59:52;25.70;99.90
39983;DHT22;25670;44.782;10.356;2023-07-09T07:02:19;25.70;99.90
39983;DHT22;25670;44.782;10.356;2023-07-09T07:04:45;25.40;99.90
39983;DHT22;25670;44.782;10.356;2023-07-09T07:07:11;25.60;99.90
39983;DHT22;25670;44.782;10.356;2023-07-09T07:09:37;25.80;99.90
39983;DHT22;25670;44.782;10.356;2023-07-09T07:12:04;27.50;99.90
39983;DHT22;25670;44.782;10.356;2023-07-09T07:14:30;25.80;99.90
39983;DHT22;25670;44.782;10.356;2023-07-09T07:16:57;25.80;99.90
39983;DHT22;25670;44.782;10.356;2023-07-09T07:19:23;26.10;99.90
39983;DHT22;25670;44.782;10.356;2023-07-09T07:21:50;26.20;99.90
39983;DHT22;25670;44.782;10.356;2023-07-09T07:24:16;26.20;99.90
39983;DHT22;25670;44.782;10.356;2023-07-09T07:26:42;26.40;99.90
39983;DHT22;25670;44.782;10.356;2023-07-09T07:29:08;26.40;99.90
39983;DHT22;25670;44.782;10.356;2023-07-09T07:31:34;26.50;99.90
39983;DHT22;25670;44.782;10.356;2023-07-09T07:34:00;26.60;99.90
39983;DHT22;25670;44.782;10.356;2023-07-09T07:36:27;26.60;99.90
39983;DHT22;25670;44.782;10.356;2023-07-09T07:38:53;26.70;99.90
39983;DHT22;25670;44.782;10.356;2023-07-09T07:41:19;26.80;99.90
39983;DHT22;25670;44.782;10.356;2023-07-09T07:43:45;26.90;99.90
39983;DHT22;25670;44.782;10.356;2023-07-09T07:46:12;26.90;99.90
39983;DHT22;25670;44.782;10.356;2023-07-09T07:48:38;27.00;99.90
39983;DHT22;25670;44.782;10.356;2023-07-09T07:51:04;27.00;99.90
39983;DHT22;25670;44.782;10.356;2023-07-09T07:53:31;26.90;99.90
39983;DHT22;25670;44.782;10.356;2023-07-09T07:55:58;27.10;99.90
39983;DHT22;25670;44.782;10.356;2023-07-09T07:58:24;27.40;99.90
39983;DHT22;25670;44.782;10.356;2023-07-09T08:00:54;27.20;99.90
39983;DHT22;25670;44.782;10.356;2023-07-09T08:03:21;27.20;99.90
39983;DHT22;25670;44.782;10.356;2023-07-09T08:05:51;27.40;99.90
39983;DHT22;25670;44.782;10.356;2023-07-09T08:08:17;27.50;99.90
39983;DHT22;25670;44.782;10.356;2023-07-09T08:10:43;27.60;99.90
39983;DHT22;25670;44.782;10.356;2023-07-09T08:13:10;27.80;99.90
39983;DHT22;25670;44.782;10.356;2023-07-09T08:15:36;27.90;99.90
39983;DHT22;25670;44.782;10.356;2023-07-09T08:18:02;28.00;99.90
39983;DHT22;25670;44.782;10.356;2023-07-09T08:20:28;28.10;99.90
39983;DHT22;25670;44.782;10.356;2023-07-09T08:22:55;28.30;99.90
39983;DHT22;25670;44.782;10.356;2023-07-09T08:25:21;28.20;99.90
39983;DHT22;25670;44.782;10.356;2023-07-09T08:27:47;28.40;99.90
39983;DHT22;25670;44.782;10.356;2023-07-09T08:30:14;28.40;99.90
39983;DHT22;25670;44.782;10.356;2023-07-09T08:32:40;28.50;99.90
39983;DHT22;25670;44.782;10.356;2023-07-09T08:35:06;28.60;99.90
39983;DHT22;25670;44.782;10.356;2023-07-09T08:37:33;28.70;99.90
39983;DHT22;25670;44.782;10.356;2023-07-09T08:39:59;28.80;99.90
39983;DHT22;25670;44.782;10.356;2023-07-09T08:42:33;28.90;99.90
39983;DHT22;25670;44.782;10.356;2023-07-09T08:45:29;28.90;99.90
39983;DHT22;25670;44.782;10.356;2023-07-09T08:48:05;28.80;99.90
39983;DHT22;25670;44.782;10.356;2023-07-09T08:50:38;29.00;99.90
39983;DHT22;25670;44.782;10.356;2023-07-09T08:53:53;29.00;99.90
39983;DHT22;25670;44.782;10.356;2023-07-09T08:55:59;29.10;99.90
39983;DHT22;25670;44.782;10.356;2023-07-09T08:58:29;29.30;99.90
39983;DHT22;25670;44.782;10.356;2023-07-09T09:00:57;29.40;99.90
39983;DHT22;25670;44.782;10.356;2023-07-09T09:06:18;29.50;99.90
39983;DHT22;25670;44.782;10.356;2023-07-09T09:11:45;29.50;99.90
39983;DHT22;25670;44.782;10.356;2023-07-09T09:14:34;29.70;99.90
39983;DHT22;25670;44.782;10.356;2023-07-09T09:17:03;29.80;99.90
39983;DHT22;25670;44.782;10.356;2023-07-09T09:19:59;29.80;99.90
39983;DHT22;25670;44.782;10.356;2023-07-09T09:22:30;29.90;99.90
39983;DHT22;25670;44.782;10.356;2023-07-09T09:25:15;30.00;99.90
39983;DHT22;25670;44.782;10.356;2023-07-09T09:27:42;30.00;99.90
39983;DHT22;25670;44.782;10.356;2023-07-09T09:30:18;30.10;99.90
39983;DHT22;25670;44.782;10.356;2023-07-09T09:32:47;30.20;99.90
39983;DHT22;25670;44.782;10.356;2023-07-09T09:35:17;30.30;99.90
39983;DHT22;25670;44.782;10.356;2023-07-09T09:37:49;30.40;99.90
39983;DHT22;25670;44.782;10.356;2023-07-09T09:40:18;30.50;99.90
39983;DHT22;25670;44.782;10.356;2023-07-09T09:42:48;30.50;99.90
39983;DHT22;25670;44.782;10.356;2023-07-09T09:45:18;30.60;99.90
39983;DHT22;25670;44.782;10.356;2023-07-09T09:47:45;30.70;99.90
39983;DHT22;25670;44.782;10.356;2023-07-09T09:50:16;30.80;99.90
39983;DHT22;25670;44.782;10.356;2023-07-09T09:52:43;30.90;99.90
39983;DHT22;25670;44.782;10.356;2023-07-09T09:55:16;31.00;99.90
39983;DHT22;25670;44.782;10.356;2023-07-09T09:57:51;31.10;99.90
39983;DHT22;25670;44.782;10.356;2023-07-09T10:00:21;31.20;99.90
39983;DHT22;25670;44.782;10.356;2023-07-09T10:02:49;31.10;99.90
39983;DHT22;25670;44.782;10.356;2023-07-09T10:05:16;31.10;99.90
39983;DHT22;25670;44.782;10.356;2023-07-09T10:08:06;31.30;99.90
39983;DHT22;25670;44.782;10.356;2023-07-09T10:10:34;31.30;99.90
39983;DHT22;25670;44.782;10.356;2023-07-09T10:13:29;31.40;99.90
39983;DHT22;25670;44.782;10.356;2023-07-09T10:16:13;31.50;99.90
39983;DHT22;25670;44.782;10.356;2023-07-09T10:27:00;31.80;99.90
39983;DHT22;25670;44.782;10.356;2023-07-09T10:29:55;32.00;99.90
39983;DHT22;25670;44.782;10.356;2023-07-09T10:32:42;32.10;99.90
39983;DHT22;25670;44.782;10.356;2023-07-09T10:37:59;32.30;99.90
39983;DHT22;25670;44.782;10.356;2023-07-09T10:40:33;32.40;99.90
39983;DHT22;25670;44.782;10.356;2023-07-09T10:43:03;32.50;99.90
39983;DHT22;25670;44.782;10.356;2023-07-09T10:45:55;32.80;99.90
39983;DHT22;25670;44.782;10.356;2023-07-09T10:48:53;32.90;99.90
39983;DHT22;25670;44.782;10.356;2023-07-09T10:51:31;33.00;99.90
39983;DHT22;25670;44.782;10.356;2023-07-09T10:56:51;32.70;99.70
39983;DHT22;25670;44.782;10.356;2023-07-09T10:59:30;32.80;99.70
39983;DHT22;25670;44.782;10.356;2023-07-09T11:02:06;33.00;99.70
39983;DHT22;25670;44.782;10.356;2023-07-09T11:04:43;33.20;98.90
39983;DHT22;25670;44.782;10.356;2023-07-09T11:07:16;33.20;98.40
39983;DHT22;25670;44.782;10.356;2023-07-09T11:09:45;33.10;98.50
39983;DHT22;25670;44.782;10.356;2023-07-09T11:12:30;33.10;98.90
39983;DHT22;25670;44.782;10.356;2023-07-09T11:15:03;33.20;97.70
39983;DHT22;25670;44.782;10.356;2023-07-09T11:17:31;33.00;97.50
39983;DHT22;25670;44.782;10.356;2023-07-09T11:20:05;33.30;97.60
39983;DHT22;25670;44.782;10.356;2023-07-09T11:22:40;33.50;98.40
39983;DHT22;25670;44.782;10.356;2023-07-09T11:25:11;33.70;97.70
39983;DHT22;25670;44.782;10.356;2023-07-09T11:27:51;33.90;97.20
39983;DHT22;25670;44.782;10.356;2023-07-09T11:30:25;34.10;97.40
39983;DHT22;25670;44.782;10.356;2023-07-09T11:33:04;34.30;97.50
39983;DHT22;25670;44.782;10.356;2023-07-09T11:35:52;34.50;96.20
39983;DHT22;25670;44.782;10.356;2023-07-09T11:38:21;34.70;97.60
39983;DHT22;25670;44.782;10.356;2023-07-09T11:40:55;34.80;97.00
39983;DHT22;25670;44.782;10.356;2023-07-09T11:43:33;34.90;96.90
39983;DHT22;25670;44.782;10.356;2023-07-09T11:46:10;35.00;96.40
39983;DHT22;25670;44.782;10.356;2023-07-09T11:48:39;35.00;95.60
39983;DHT22;25670;44.782;10.356;2023-07-09T11:51:16;34.90;96.10
39983;DHT22;25670;44.782;10.356;2023-07-09T11:53:52;34.80;95.80
39983;DHT22;25670;44.782;10.356;2023-07-09T11:56:23;34.90;96.10
39983;DHT22;25670;44.782;10.356;2023-07-09T11:58:55;34.80;95.20
39983;DHT22;25670;44.782;10.356;2023-07-09T12:01:26;34.90;95.00
39983;DHT22;25670;44.782;10.356;2023-07-09T12:03:56;35.00;94.70
39983;DHT22;25670;44.782;10.356;2023-07-09T12:06:32;35.20;94.30
39983;DHT22;25670;44.782;10.356;2023-07-09T12:08:59;35.30;93.60
39983;DHT22;25670;44.782;10.356;2023-07-09T12:11:31;35.40;93.40
39983;DHT22;25670;44.782;10.356;2023-07-09T12:14:11;35.70;94.40
39983;DHT22;25670;44.782;10.356;2023-07-09T12:16:40;35.80;93.20
39983;DHT22;25670;44.782;10.356;2023-07-09T12:19:09;35.70;92.70
39983;DHT22;25670;44.782;10.356;2023-07-09T12:21:38;35.90;92.60
39983;DHT22;25670;44.782;10.356;2023-07-09T12:27:02;36.20;92.90
39983;DHT22;25670;44.782;10.356;2023-07-09T12:29:31;36.30;92.40
39983;DHT22;25670;44.782;10.356;2023-07-09T12:32:05;36.30;92.40
39983;DHT22;25670;44.782;10.356;2023-07-09T12:34:36;36.40;92.90
39983;DHT22;25670;44.782;10.356;2023-07-09T12:37:03;36.50;92.20
39983;DHT22;25670;44.782;10.356;2023-07-09T12:39:32;36.40;91.40
39983;DHT22;25670;44.782;10.356;2023-07-09T12:42:00;36.50;91.90
39983;DHT22;25670;44.782;10.356;2023-07-09T12:44:31;36.50;91.60
39983;DHT22;25670;44.782;10.356;2023-07-09T12:47:00;36.70;92.60
39983;DHT22;25670;44.782;10.356;2023-07-09T12:49:29;36.80;90.20
39983;DHT22;25670;44.782;10.356;2023-07-09T12:51:57;36.50;91.30
39983;DHT22;25670;44.782;10.356;2023-07-09T12:54:24;36.50;91.60
39983;DHT22;25670;44.782;10.356;2023-07-09T12:56:54;36.70;92.10
39983;DHT22;25670;44.782;10.356;2023-07-09T12:59:28;37.00;90.40
39983;DHT22;25670;44.782;10.356;2023-07-09T13:04:41;37.20;90.70
39983;DHT22;25670;44.782;10.356;2023-07-09T13:07:29;37.20;90.50
39983;DHT22;25670;44.782;10.356;2023-07-09T13:09:56;37.40;90.00
39983;DHT22;25670;44.782;10.356;2023-07-09T13:12:33;37.60;90.20
39983;DHT22;25670;44.782;10.356;2023-07-09T13:15:00;37.70;88.00
39983;DHT22;25670;44.782;10.356;2023-07-09T13:17:30;37.60;86.80
39983;DHT22;25670;44.782;10.356;2023-07-09T13:19:57;37.60;87.70
39983;DHT22;25670;44.782;10.356;2023-07-09T13:22:23;37.80;87.50
39983;DHT22;25670;44.782;10.356;2023-07-09T13:24:50;37.70;86.60
39983;DHT22;25670;44.782;10.356;2023-07-09T13:27:17;37.70;85.10
39983;DHT22;25670;44.782;10.356;2023-07-09T13:32:10;37.70;85.50
39983;DHT22;25670;44.782;10.356;2023-07-09T13:34:38;37.70;84.80
39983;DHT22;25670;44.782;10.356;2023-07-09T13:37:09;37.90;84.30
39983;DHT22;25670;44.782;10.356;2023-07-09T13:39:37;37.90;84.90
39983;DHT22;25670;44.782;10.356;2023-07-09T13:42:09;38.00;84.30
39983;DHT22;25670;44.782;10.356;2023-07-09T13:44:39;38.00;82.90
39983;DHT22;25670;44.782;10.356;2023-07-09T13:47:05;38.10;84.20
39983;DHT22;25670;44.782;10.356;2023-07-09T13:49:33;38.00;82.50
39983;DHT22;25670;44.782;10.356;2023-07-09T13:52:00;38.00;82.40
39983;DHT22;25670;44.782;10.356;2023-07-09T13:54:30;38.10;83.00
39983;DHT22;25670;44.782;10.356;2023-07-09T13:57:10;38.30;83.60
39983;DHT22;25670;44.782;10.356;2023-07-09T13:59:38;38.30;81.60
39983;DHT22;25670;44.782;10.356;2023-07-09T14:02:17;38.30;81.10
39983;DHT22;25670;44.782;10.356;2023-07-09T14:04:45;38.30;86.00
39983;DHT22;25670;44.782;10.356;2023-07-09T14:07:27;38.50;83.20
39983;DHT22;25670;44.782;10.356;2023-07-09T14:09:54;38.60;80.50
39983;DHT22;25670;44.782;10.356;2023-07-09T14:12:20;38.70;80.60
39983;DHT22;25670;44.782;10.356;2023-07-09T14:14:47;38.60;81.20
39983;DHT22;25670;44.782;10.356;2023-07-09T14:17:15;38.90;81.20
39983;DHT22;25670;44.782;10.356;2023-07-09T14:19:41;39.00;81.80
39983;DHT22;25670;44.782;10.356;2023-07-09T14:22:37;39.20;81.10
39983;DHT22;25670;44.782;10.356;2023-07-09T14:25:04;39.50;80.30
39983;DHT22;25670;44.782;10.356;2023-07-09T14:29:57;39.60;80.00
39983;DHT22;25670;44.782;10.356;2023-07-09T14:35:00;39.00;78.30
39983;DHT22;25670;44.782;10.356;2023-07-09T14:37:27;39.10;79.10
39983;DHT22;25670;44.782;10.356;2023-07-09T14:39:53;39.30;78.90
39983;DHT22;25670;44.782;10.356;2023-07-09T14:42:20;39.20;77.80
39983;DHT22;25670;44.782;10.356;2023-07-09T14:47:17;39.10;77.60
39983;DHT22;25670;44.782;10.356;2023-07-09T14:49:45;39.20;78.10
39983;DHT22;25670;44.782;10.356;2023-07-09T14:52:17;39.20;78.00
39983;DHT22;25670;44.782;10.356;2023-07-09T14:54:45;39.00;77.30
39983;DHT22;25670;44.782;10.356;2023-07-09T14:57:19;39.40;78.00
39983;DHT22;25670;44.782;10.356;2023-07-09T14:59:47;39.70;77.20
39983;DHT22;25670;44.782;10.356;2023-07-09T15:02:35;39.60;78.00
39983;DHT22;25670;44.782;10.356;2023-07-09T15:05:04;39.80;77.90
39983;DHT22;25670;44.782;10.356;2023-07-09T15:07:31;41.10;77.40
39983;DHT22;25670;44.782;10.356;2023-07-09T15:09:59;40.10;76.30
39983;DHT22;25670;44.782;10.356;2023-07-09T15:12:31;39.90;76.10
39983;DHT22;25670;44.782;10.356;2023-07-09T15:15:13;40.10;78.70
39983;DHT22;25670;44.782;10.356;2023-07-09T15:17:41;40.40;76.60
39983;DHT22;25670;44.782;10.356;2023-07-09T15:20:13;40.40;75.00
39983;DHT22;25670;44.782;10.356;2023-07-09T15:22:40;40.40;74.80
39983;DHT22;25670;44.782;10.356;2023-07-09T15:25:13;40.30;74.80
39983;DHT22;25670;44.782;10.356;2023-07-09T15:27:39;40.30;74.30
39983;DHT22;25670;44.782;10.356;2023-07-09T15:30:20;40.40;73.90
39983;DHT22;25670;44.782;10.356;2023-07-09T15:32:48;40.70;74.00
39983;DHT22;25670;44.782;10.356;2023-07-09T15:35:17;40.90;74.10
39983;DHT22;25670;44.782;10.356;2023-07-09T15:37:44;41.10;74.50
39983;DHT22;25670;44.782;10.356;2023-07-09T15:40:18;41.30;75.40
39983;DHT22;25670;44.782;10.356;2023-07-09T15:42:47;40.90;73.30
39983;DHT22;25670;44.782;10.356;2023-07-09T15:45:15;41.40;73.50
39983;DHT22;25670;44.782;10.356;2023-07-09T15:47:42;41.30;71.80
39983;DHT22;25670;44.782;10.356;2023-07-09T15:50:35;40.60;71.80
39983;DHT22;25670;44.782;10.356;2023-07-09T15:53:04;40.50;71.90
39983;DHT22;25670;44.782;10.356;2023-07-09T15:55:30;40.70;72.10
39983;DHT22;25670;44.782;10.356;2023-07-09T15:57:56;40.60;72.80
39983;DHT22;25670;44.782;10.356;2023-07-09T16:00:25;40.60;72.10
39983;DHT22;25670;44.782;10.356;2023-07-09T16:02:52;40.80;72.60
39983;DHT22;25670;44.782;10.356;2023-07-09T16:05:28;41.30;72.20
39983;DHT22;25670;44.782;10.356;2023-07-09T16:07:59;41.60;72.70
39983;DHT22;25670;44.782;10.356;2023-07-09T16:10:28;41.60;70.30
39983;DHT22;25670;44.782;10.356;2023-07-09T16:12:56;41.70;71.00
39983;DHT22;25670;44.782;10.356;2023-07-09T16:15:24;41.80;70.00
39983;DHT22;25670;44.782;10.356;2023-07-09T16:17:51;41.90;69.50
39983;DHT22;25670;44.782;10.356;2023-07-09T16:20:23;41.70;69.60
39983;DHT22;25670;44.782;10.356;2023-07-09T16:22:54;42.10;69.00
39983;DHT22;25670;44.782;10.356;2023-07-09T16:25:24;42.10;69.50
39983;DHT22;25670;44.782;10.356;2023-07-09T16:27:50;42.50;69.40
39983;DHT22;25670;44.782;10.356;2023-07-09T16:30:23;42.50;69.80
39983;DHT22;25670;44.782;10.356;2023-07-09T16:32:50;43.10;68.90
39983;DHT22;25670;44.782;10.356;2023-07-09T16:35:20;43.30;68.90
39983;DHT22;25670;44.782;10.356;2023-07-09T16:37:48;43.00;68.20
39983;DHT22;25670;44.782;10.356;2023-07-09T16:40:27;42.80;69.10
39983;DHT22;25670;44.782;10.356;2023-07-09T16:42:56;42.70;68.70
39983;DHT22;25670;44.782;10.356;2023-07-09T16:45:24;42.70;68.70
39983;DHT22;25670;44.782;10.356;2023-07-09T16:47:51;42.90;68.30
39983;DHT22;25670;44.782;10.356;2023-07-09T16:50:20;42.80;67.40
39983;DHT22;25670;44.782;10.356;2023-07-09T16:52:49;43.30;68.40
39983;DHT22;25670;44.782;10.356;2023-07-09T16:55:22;43.60;66.60
39983;DHT22;25670;44.782;10.356;2023-07-09T16:57:53;43.80;66.40
39983;DHT22;25670;44.782;10.356;2023-07-09T17:00:29;44.00;66.60
39983;DHT22;25670;44.782;10.356;2023-07-09T17:02:57;44.00;65.80
39983;DHT22;25670;44.782;10.356;2023-07-09T17:05:25;43.50;66.20
39983;DHT22;25670;44.782;10.356;2023-07-09T17:07:52;43.40;66.10
39983;DHT22;25670;44.782;10.356;2023-07-09T17:10:19;43.80;65.40
39983;DHT22;25670;44.782;10.356;2023-07-09T17:12:54;43.30;65.90
39983;DHT22;25670;44.782;10.356;2023-07-09T17:15:27;43.50;67.30
39983;DHT22;25670;44.782;10.356;2023-07-09T17:17:55;43.60;66.70
39983;DHT22;25670;44.782;10.356;2023-07-09T17:20:23;44.00;66.40
39983;DHT22;25670;44.782;10.356;2023-07-09T17:22:51;44.30;65.80
39983;DHT22;25670;44.782;10.356;2023-07-09T17:25:28;44.60;65.50
39983;DHT22;25670;44.782;10.356;2023-07-09T17:27:56;44.50;64.90
39983;DHT22;25670;44.782;10.356;2023-07-09T17:30:24;44.10;65.10
39983;DHT22;25670;44.782;10.356;2023-07-09T17:32:50;43.50;65.60
39983;DHT22;25670;44.782;10.356;2023-07-09T17:35:17;43.20;65.70
39983;DHT22;25670;44.782;10.356;2023-07-09T17:37:53;43.00;66.00
39983;DHT22;25670;44.782;10.356;2023-07-09T17:40:29;43.20;65.80
39983;DHT22;25670;44.782;10.356;2023-07-09T17:42:56;42.90;66.10
39983;DHT22;25670;44.782;10.356;2023-07-09T17:45:24;42.40;66.40
39983;DHT22;25670;44.782;10.356;2023-07-09T17:47:51;42.40;67.00
39983;DHT22;25670;44.782;10.356;2023-07-09T17:50:21;42.10;66.70
39983;DHT22;25670;44.782;10.356;2023-07-09T17:52:49;42.10;67.30
39983;DHT22;25670;44.782;10.356;2023-07-09T17:55:16;42.30;66.60
39983;DHT22;25670;44.782;10.356;2023-07-09T17:57:46;42.40;65.80
39983;DHT22;25670;44.782;10.356;2023-07-09T18:00:22;42.40;66.30
39983;DHT22;25670;44.782;10.356;2023-07-09T18:03:10;41.60;66.30
39983;DHT22;25670;44.782;10.356;2023-07-09T18:05:37;41.40;68.00
39983;DHT22;25670;44.782;10.356;2023-07-09T18:08:09;41.20;67.90
39983;DHT22;25670;44.782;10.356;2023-07-09T18:10:38;41.30;67.60
39983;DHT22;25670;44.782;10.356;2023-07-09T18:13:09;41.10;67.80
39983;DHT22;25670;44.782;10.356;2023-07-09T18:15:36;41.00;68.10
39983;DHT22;25670;44.782;10.356;2023-07-09T18:18:04;40.70;69.00
39983;DHT22;25670;44.782;10.356;2023-07-09T18:20:31;40.40;69.30
39983;DHT22;25670;44.782;10.356;2023-07-09T18:22:58;40.30;69.30
39983;DHT22;25670;44.782;10.356;2023-07-09T18:25:26;40.00;69.70
39983;DHT22;25670;44.782;10.356;2023-07-09T18:27:55;39.60;69.80
39983;DHT22;25670;44.782;10.356;2023-07-09T18:30:24;38.60;71.20
39983;DHT22;25670;44.782;10.356;2023-07-09T18:32:53;37.70;72.10
39983;DHT22;25670;44.782;10.356;2023-07-09T18:35:30;37.60;72.50
39983;DHT22;25670;44.782;10.356;2023-07-09T18:38:05;37.30;73.00
39983;DHT22;25670;44.782;10.356;2023-07-09T18:40:35;36.90;74.00
39983;DHT22;25670;44.782;10.356;2023-07-09T18:43:18;36.50;74.40
39983;DHT22;25670;44.782;10.356;2023-07-09T18:45:46;36.20;75.50
39983;DHT22;25670;44.782;10.356;2023-07-09T18:48:16;35.70;76.80
39983;DHT22;25670;44.782;10.356;2023-07-09T18:50:44;35.20;76.90
39983;DHT22;25670;44.782;10.356;2023-07-09T18:53:14;34.70;78.40
39983;DHT22;25670;44.782;10.356;2023-07-09T18:55:41;34.20;79.60
39983;DHT22;25670;44.782;10.356;2023-07-09T18:58:13;33.70;80.60
39983;DHT22;25670;44.782;10.356;2023-07-09T19:00:40;33.30;82.30
39983;DHT22;25670;44.782;10.356;2023-07-09T19:03:13;33.00;83.30
39983;DHT22;25670;44.782;10.356;2023-07-09T19:05:43;32.70;84.70